Time;durP1;ratioP1;P1;durP2;ratioP2;P2;SDS_P1;SDS_P2;PMS_P1;PMS_P2;Temp;Humidity;BMP_temperature;BMP_pressure;BME280_temperature;BME280_humidity;BME280_pressure;Samples;Min_cycle;Max_cycle;Signal;HPM_P1;HPM_P2
2021/03/13 00:01:09;;;;;;;2.05;0.30;;;;;;;4.01;85.29;98167.72;5031931;28;20026;-69
2021/03/13 00:03:35;;;;;;;0.88;0.25;;;;;;;4.02;85.22;98170.25;5034989;28;20026;-70
2021/03/13 00:06:00;;;;;;;0.90;0.20;;;;;;;4.01;85.32;98163.25;5036390;28;20018;-70
2021/03/13 00:08:26;;;;;;;3.80;0.20;;;;;;;3.99;84.90;98170.59;5048108;28;20026;-69
2021/03/13 00:10:51;;;;;;;2.10;0.20;;;;;;;3.93;84.14;98157.94;5036514;28;20048;-69
2021/03/13 00:13:17;;;;;;;1.33;0.32;;;;;;;3.87;84.49;98158.63;5034215;28;20029;-69
2021/03/13 00:15:44;;;;;;;0.25;0.25;;;;;;;3.92;84.37;98169.63;5027983;28;20041;-71
2021/03/13 00:18:11;;;;;;;0.20;0.20;;;;;;;3.85;84.99;98149.94;5019480;28;20099;-69
2021/03/13 00:20:38;;;;;;;0.40;0.20;;;;;;;3.88;84.77;98163.00;5015310;28;20037;-70
2021/03/13 00:23:04;;;;;;;3.40;0.20;;;;;;;3.85;84.67;98164.19;5023226;28;20022;-71
2021/03/13 00:25:31;;;;;;;3.30;0.95;;;;;;;3.86;84.67;98171.19;5015322;28;20424;-72
2021/03/13 00:27:57;;;;;;;0.17;0.17;;;;;;;3.94;84.20;98167.63;5020928;28;20125;-69
2021/03/13 00:30:28;;;;;;;0.20;0.13;;;;;;;3.92;84.00;98167.78;5011918;28;20449;-69
2021/03/13 00:33:05;;;;;;;0.55;0.32;;;;;;;3.96;83.46;98165.63;5024222;28;20056;-69
2021/03/13 00:35:32;;;;;;;0.20;0.20;;;;;;;3.95;83.88;98163.94;5016775;28;20029;-69
2021/03/13 00:37:59;;;;;;;1.13;0.30;;;;;;;3.98;83.68;98163.56;5014077;28;20113;-69
2021/03/13 00:40:28;;;;;;;0.98;0.30;;;;;;;4.00;83.12;98155.38;5014752;28;20034;-69
2021/03/13 00:42:54;;;;;;;0.50;0.40;;;;;;;3.97;83.54;98155.72;4999714;28;20026;-69
2021/03/13 00:45:22;;;;;;;1.52;0.50;;;;;;;3.98;83.86;98155.53;4983329;28;20037;-69
2021/03/13 00:47:48;;;;;;;1.75;0.52;;;;;;;4.00;83.76;98148.16;5022883;28;20112;-69
2021/03/13 00:50:15;;;;;;;1.52;0.43;;;;;;;4.00;83.66;98145.50;5016541;28;20029;-69
2021/03/13 00:52:41;;;;;;;2.80;0.40;;;;;;;4.05;83.66;98140.44;5034837;28;20036;-69
2021/03/13 00:55:08;;;;;;;1.30;0.70;;;;;;;4.11;83.98;98141.56;5027356;28;20062;-69
2021/03/13 00:57:34;;;;;;;1.52;0.70;;;;;;;4.14;83.76;98130.53;5012479;28;20037;-69
2021/03/13 00:59:59;;;;;;;1.20;0.47;;;;;;;4.23;83.43;98125.94;5015573;28;20038;-69
2021/03/13 01:02:25;;;;;;;0.55;0.32;;;;;;;4.24;82.81;98127.59;5015493;28;20133;-69
2021/03/13 01:04:50;;;;;;;0.88;0.50;;;;;;;4.30;82.95;98118.84;5014012;28;20065;-69
2021/03/13 01:07:16;;;;;;;1.00;0.50;;;;;;;4.35;82.89;98116.47;5018000;28;20162;-69
2021/03/13 01:09:41;;;;;;;0.43;0.28;;;;;;;4.42;82.95;98121.91;5014474;28;20041;-69
2021/03/13 01:12:07;;;;;;;1.70;0.30;;;;;;;4.45;81.91;98117.03;5027919;28;20120;-69
2021/03/13 01:14:33;;;;;;;0.32;0.15;;;;;;;4.45;81.90;98100.94;5012139;28;20049;-68
2021/03/13 01:16:58;;;;;;;1.45;0.20;;;;;;;4.54;82.04;98099.88;5025494;28;20037;-69
2021/03/13 01:19:24;;;;;;;2.03;0.40;;;;;;;4.53;82.59;98100.91;5015267;28;20268;-69
2021/03/13 01:21:49;;;;;;;0.82;0.30;;;;;;;4.53;82.74;98081.28;5014143;28;20060;-69
2021/03/13 01:24:14;;;;;;;0.50;0.35;;;;;;;4.53;82.61;98082.16;5013982;28;20083;-69
2021/03/13 01:26:40;;;;;;;1.15;0.65;;;;;;;4.57;82.49;98074.56;5015414;28;20033;-69
2021/03/13 01:29:05;;;;;;;0.60;0.28;;;;;;;4.63;81.85;98068.47;5014450;28;20057;-69
2021/03/13 01:31:31;;;;;;;0.60;0.30;;;;;;;4.58;81.89;98047.63;5018071;28;20045;-69
2021/03/13 01:33:56;;;;;;;0.77;0.30;;;;;;;4.72;80.47;98058.53;5013501;28;20072;-69
2021/03/13 01:36:21;;;;;;;0.40;0.17;;;;;;;4.92;80.29;98064.97;5014320;28;20066;-69
2021/03/13 01:38:47;;;;;;;0.65;0.40;;;;;;;4.95;80.52;98061.09;5013508;28;20030;-69
2021/03/13 01:41:12;;;;;;;1.30;0.30;;;;;;;4.97;80.32;98056.38;5013073;28;20045;-69
2021/03/13 01:43:38;;;;;;;2.45;0.32;;;;;;;4.94;80.26;98057.56;5013777;28;20042;-69
2021/03/13 01:46:04;;;;;;;1.23;0.70;;;;;;;5.02;80.20;98062.00;5014128;28;20107;-69
2021/03/13 01:48:31;;;;;;;0.95;0.50;;;;;;;5.08;79.19;98063.09;5013650;28;20037;-69
2021/03/13 01:50:57;;;;;;;1.95;0.28;;;;;;;5.05;79.50;98050.91;5014141;28;20076;-69
2021/03/13 01:53:23;;;;;;;0.93;0.10;;;;;;;5.01;78.86;98045.09;5007503;28;20065;-69
2021/03/13 01:55:48;;;;;;;0.70;0.22;;;;;;;5.07;79.12;98035.47;5004409;28;20057;-69
2021/03/13 01:58:13;;;;;;;1.63;0.10;;;;;;;5.00;79.41;98045.28;5013838;28;20057;-69
2021/03/13 02:00:38;;;;;;;0.10;0.10;;;;;;;5.08;79.53;98037.13;5021911;28;20088;-69
2021/03/13 02:03:04;;;;;;;0.73;0.20;;;;;;;5.07;79.78;98040.00;5013428;28;20084;-69
2021/03/13 02:05:44;;;;;;;0.45;0.20;;;;;;;5.02;79.23;98027.97;5013672;28;20033;-69
2021/03/13 02:08:38;;;;;;;1.65;0.10;;;;;;;5.00;80.10;98034.56;5013067;28;20045;-69
2021/03/13 02:11:04;;;;;;;0.28;0.10;;;;;;;4.97;80.14;98024.22;5018991;28;20551;-69
2021/03/13 02:13:44;;;;;;;0.93;0.13;;;;;;;4.95;79.69;98021.72;5024645;28;20116;-69
2021/03/13 02:16:15;;;;;;;0.10;0.10;;;;;;;4.96;79.66;98027.91;5012238;28;20105;-69
2021/03/13 02:19:20;;;;;;;0.17;0.10;;;;;;;4.90;79.83;98008.06;4995448;28;20038;-69
2021/03/13 02:22:05;;;;;;;0.60;0.20;;;;;;;4.84;79.97;97995.38;5003460;28;20037;-69
2021/03/13 02:25:02;;;;;;;1.05;0.20;;;;;;;4.92;80.21;98011.34;5007774;28;20057;-69
2021/03/13 02:27:31;;;;;;;1.35;0.20;;;;;;;4.86;80.56;97993.34;5013694;28;20022;-69
2021/03/13 02:30:04;;;;;;;1.25;0.30;;;;;;;4.77;80.83;97998.00;5013346;28;20037;-69
2021/03/13 02:32:48;;;;;;;1.10;0.30;;;;;;;4.68;81.52;98004.44;5014222;28;20450;-69
2021/03/13 02:35:30;;;;;;;2.65;0.30;;;;;;;4.71;81.69;98003.25;5011361;28;20495;-69
2021/03/13 02:38:04;;;;;;;0.75;0.38;;;;;;;4.59;81.95;97968.06;5004237;28;20076;-69
2021/03/13 02:40:31;;;;;;;1.33;0.25;;;;;;;4.70;81.61;97988.19;5012739;28;20323;-69
2021/03/13 02:43:00;;;;;;;0.90;0.30;;;;;;;4.73;81.68;97985.16;5009776;28;20030;-69
2021/03/13 02:45:29;;;;;;;1.60;0.30;;;;;;;4.80;82.02;97991.44;5011274;28;20021;-69
2021/03/13 02:47:56;;;;;;;0.20;0.17;;;;;;;4.71;82.03;97992.53;5013403;28;20499;-69
2021/03/13 02:50:22;;;;;;;1.00;0.50;;;;;;;4.71;81.97;97981.81;5011164;28;20033;-69
2021/03/13 02:52:50;;;;;;;0.65;0.30;;;;;;;4.63;83.09;97973.88;5014664;28;20049;-69
2021/03/13 02:55:16;;;;;;;0.93;0.30;;;;;;;4.62;82.96;97983.78;5013644;28;20392;-69
2021/03/13 02:57:44;;;;;;;1.65;0.30;;;;;;;4.57;82.95;97973.59;5014788;28;20021;-69
2021/03/13 03:00:11;;;;;;;1.00;0.20;;;;;;;4.55;83.10;97978.31;5019357;28;20112;-70
2021/03/13 03:02:38;;;;;;;1.23;0.57;;;;;;;4.50;83.08;97953.94;5012220;28;20040;-69
2021/03/13 03:05:06;;;;;;;2.05;0.40;;;;;;;4.55;82.89;97972.13;5012581;28;20018;-69
2021/03/13 03:07:31;;;;;;;0.80;0.35;;;;;;;4.46;83.01;97962.53;5013334;28;20069;-69
2021/03/13 03:09:58;;;;;;;3.67;0.95;;;;;;;4.44;83.36;97959.22;5012352;28;20061;-69
2021/03/13 03:12:24;;;;;;;1.30;0.57;;;;;;;4.39;84.21;97957.91;5012523;28;20037;-69
2021/03/13 03:14:51;;;;;;;1.85;0.57;;;;;;;4.40;83.53;97953.38;5011989;28;20041;-69
2021/03/13 03:17:18;;;;;;;7.20;0.82;;;;;;;4.28;84.43;97931.59;5025792;28;20127;-69
2021/03/13 03:19:44;;;;;;;2.97;0.70;;;;;;;4.40;83.73;97931.94;5011339;28;20133;-69
2021/03/13 03:22:10;;;;;;;3.13;0.77;;;;;;;4.45;83.29;97932.22;5025203;28;20537;-69
2021/03/13 03:24:36;;;;;;;1.25;0.57;;;;;;;4.66;82.79;97939.50;5013935;28;20030;-69
2021/03/13 03:27:01;;;;;;;2.53;0.60;;;;;;;4.62;82.73;97932.88;5012525;28;20030;-69
2021/03/13 03:29:27;;;;;;;1.27;0.40;;;;;;;4.63;82.86;97936.38;5012606;28;20033;-69
2021/03/13 03:31:53;;;;;;;3.38;0.40;;;;;;;4.66;82.42;97926.09;5014926;28;20026;-69
2021/03/13 03:34:19;;;;;;;2.40;0.50;;;;;;;4.66;82.36;97926.09;5012372;28;20472;-69
2021/03/13 03:36:44;;;;;;;3.35;0.52;;;;;;;4.66;82.69;97911.88;5028924;28;20472;-69
2021/03/13 03:39:10;;;;;;;1.60;0.50;;;;;;;4.79;81.84;97920.94;5019037;28;20068;-69
2021/03/13 03:41:36;;;;;;;1.20;0.70;;;;;;;4.88;81.46;97915.47;5013409;28;20501;-69
2021/03/13 03:44:06;;;;;;;2.50;0.60;;;;;;;4.94;80.95;97923.56;5024215;28;20104;-69
2021/03/13 03:46:35;;;;;;;4.13;0.52;;;;;;;4.92;81.01;97898.78;5016936;28;20017;-69
2021/03/13 03:49:04;;;;;;;1.90;0.55;;;;;;;5.09;80.18;97911.97;5011773;28;20197;-69
2021/03/13 03:51:29;;;;;;;1.75;0.60;;;;;;;5.14;80.59;97914.91;5016008;28;20040;-69
2021/03/13 03:53:56;;;;;;;1.90;0.50;;;;;;;5.13;80.74;97923.97;5024928;28;20405;-69
2021/03/13 03:56:23;;;;;;;5.70;1.17;;;;;;;5.08;80.55;97902.25;5018155;28;20033;-69
2021/03/13 03:58:49;;;;;;;6.40;0.95;;;;;;;5.12;80.69;97906.22;5023169;28;20509;-70
2021/03/13 04:01:16;;;;;;;4.72;0.70;;;;;;;5.13;80.39;97905.19;5014519;28;20026;-69
2021/03/13 04:03:46;;;;;;;2.50;0.60;;;;;;;5.15;80.34;97911.19;5031528;28;20115;-69
2021/03/13 04:06:13;;;;;;;2.63;0.60;;;;;;;5.21;80.12;97903.25;5015206;28;20125;-68
2021/03/13 04:08:41;;;;;;;1.27;0.60;;;;;;;5.21;80.68;97903.25;5024500;28;20479;-69
2021/03/13 04:11:16;;;;;;;4.97;0.70;;;;;;;5.19;80.62;97904.44;5015679;28;20057;-69
2021/03/13 04:13:43;;;;;;;3.05;0.75;;;;;;;5.18;81.02;97911.63;5025635;28;20044;-69
2021/03/13 04:16:10;;;;;;;3.58;0.63;;;;;;;5.28;80.19;97888.00;5018352;28;20071;-69
2021/03/13 04:18:36;;;;;;;2.63;0.57;;;;;;;5.43;79.74;97890.63;5014597;28;20040;-69
2021/03/13 04:21:01;;;;;;;2.47;0.43;;;;;;;5.61;79.34;97894.72;5014610;28;20022;-69
2021/03/13 04:23:27;;;;;;;3.15;0.50;;;;;;;5.74;78.90;97897.50;5015171;28;20022;-69
2021/03/13 04:25:54;;;;;;;1.88;0.40;;;;;;;5.85;78.70;97899.66;5014715;28;20055;-69
2021/03/13 04:28:20;;;;;;;1.25;0.30;;;;;;;5.92;78.61;97903.22;5029030;28;20495;-69
2021/03/13 04:30:47;;;;;;;4.13;0.75;;;;;;;5.92;78.88;97889.78;5062793;22;20038;-72
2021/03/13 04:33:15;;;;;;;2.78;0.40;;;;;;;5.92;79.59;97895.16;5015949;28;20026;-72
2021/03/13 04:35:41;;;;;;;2.25;0.60;;;;;;;5.90;79.02;97891.84;5033460;28;20040;-73
2021/03/13 04:38:08;;;;;;;1.45;0.43;;;;;;;5.90;79.29;97897.19;5039653;28;20025;-72
2021/03/13 04:40:34;;;;;;;2.35;0.55;;;;;;;5.89;78.97;97890.19;5053959;28;20103;-73
2021/03/13 04:43:00;;;;;;;4.22;0.50;;;;;;;5.88;79.07;97893.88;5015970;28;20076;-73
2021/03/13 04:45:25;;;;;;;1.33;0.52;;;;;;;5.79;79.49;97878.97;5037143;28;20044;-72
2021/03/13 04:47:51;;;;;;;2.28;0.60;;;;;;;5.63;78.98;97863.13;5035996;28;20546;-72
2021/03/13 04:50:21;;;;;;;2.30;0.50;;;;;;;5.68;79.25;97864.19;5044009;28;20029;-73
2021/03/13 04:52:48;;;;;;;2.63;0.50;;;;;;;5.79;78.20;97873.59;5015618;28;20026;-73
2021/03/13 04:55:13;;;;;;;2.17;0.50;;;;;;;5.75;79.02;97864.25;5041811;28;20065;-72
2021/03/13 04:57:39;;;;;;;1.90;0.40;;;;;;;5.80;78.39;97869.88;5031319;28;20435;-73
2021/03/13 05:00:08;;;;;;;1.83;0.40;;;;;;;5.77;79.04;97870.28;5034769;28;20083;-73
2021/03/13 05:02:33;;;;;;;2.60;0.40;;;;;;;5.75;78.51;97861.56;5014530;28;20037;-73
2021/03/13 05:04:58;;;;;;;3.20;0.60;;;;;;;5.74;78.74;97857.25;5035487;28;20493;-71
2021/03/13 05:07:24;;;;;;;2.50;0.50;;;;;;;5.85;78.69;97867.44;5024212;28;20087;-73
2021/03/13 05:09:49;;;;;;;2.63;0.47;;;;;;;5.79;78.16;97854.81;5019946;28;20034;-68
2021/03/13 05:12:14;;;;;;;3.55;0.40;;;;;;;5.90;77.91;97861.47;5031477;28;20104;-69
2021/03/13 05:14:40;;;;;;;5.82;0.60;;;;;;;5.92;77.88;97862.94;5025483;28;20492;-74
2021/03/13 05:17:05;;;;;;;1.80;0.47;;;;;;;5.96;78.20;97847.28;5026269;28;20040;-74
2021/03/13 05:19:30;;;;;;;2.22;0.35;;;;;;;5.84;77.85;97840.78;5015267;28;20548;-74
2021/03/13 05:21:56;;;;;;;4.63;0.60;;;;;;;5.89;77.42;97823.06;5011693;28;20026;-73
2021/03/13 05:24:21;;;;;;;1.58;0.47;;;;;;;5.90;77.28;97826.59;5028527;28;20041;-72
2021/03/13 05:26:48;;;;;;;2.03;0.30;;;;;;;5.83;77.36;97820.34;5026562;28;20025;-73
2021/03/13 05:29:13;;;;;;;1.17;0.60;;;;;;;5.88;77.58;97828.63;5034604;28;20028;-73
2021/03/13 05:31:38;;;;;;;2.05;0.30;;;;;;;5.91;77.57;97828.22;5028700;28;20021;-72
2021/03/13 05:34:04;;;;;;;1.48;0.32;;;;;;;5.95;76.59;97823.31;5029439;28;20036;-73
2021/03/13 05:36:29;;;;;;;0.90;0.32;;;;;;;6.01;77.36;97812.63;5026618;28;20040;-75
2021/03/13 05:38:55;;;;;;;0.73;0.22;;;;;;;6.09;76.58;97817.00;5019151;28;20014;-75
2021/03/13 05:41:20;;;;;;;0.82;0.22;;;;;;;6.12;76.25;97805.84;5031710;28;20123;-73
2021/03/13 05:43:46;;;;;;;3.05;0.60;;;;;;;6.10;76.35;97802.53;5016805;28;20038;-74
2021/03/13 05:46:12;;;;;;;1.15;0.22;;;;;;;6.22;76.09;97808.19;5030359;28;20030;-74
2021/03/13 05:48:42;;;;;;;3.95;0.40;;;;;;;6.22;75.52;97792.88;5023489;28;20261;-73
2021/03/13 05:51:11;;;;;;;0.47;0.10;;;;;;;6.27;75.30;97785.06;5015349;28;20471;-75
2021/03/13 05:53:39;;;;;;;0.88;0.30;;;;;;;6.31;75.58;97783.66;4997051;28;20030;-72
2021/03/13 05:56:05;;;;;;;2.33;0.30;;;;;;;6.34;74.71;97772.50;5018077;28;20030;-76
2021/03/13 05:58:30;;;;;;;2.72;0.70;;;;;;;6.34;74.97;97772.50;5016601;28;20025;-71
2021/03/13 06:00:55;;;;;;;0.90;0.20;;;;;;;6.36;74.49;97775.78;5033437;28;20039;-68
2021/03/13 06:03:21;;;;;;;1.67;0.30;;;;;;;6.32;75.12;97763.78;5047251;28;20061;-70
2021/03/13 06:05:47;;;;;;;1.75;0.40;;;;;;;6.35;74.28;97765.25;5030256;28;20387;-72
2021/03/13 06:08:15;;;;;;;2.22;0.30;;;;;;;6.50;74.40;97773.16;5033590;28;20025;-76
2021/03/13 06:10:41;;;;;;;1.17;0.20;;;;;;;6.49;74.06;97768.81;5034292;28;20044;-70
2021/03/13 06:13:07;;;;;;;2.53;0.30;;;;;;;6.50;73.47;97763.22;5021276;28;20558;-69
2021/03/13 06:15:32;;;;;;;1.45;0.30;;;;;;;6.73;72.79;97764.72;5030374;28;20037;-71
2021/03/13 06:17:58;;;;;;;3.05;0.20;;;;;;;6.88;72.22;97764.53;5046773;28;20036;-70
2021/03/13 06:20:38;;;;;;;0.50;0.22;;;;;;;7.10;71.51;97783.97;5039288;28;20072;-70
2021/03/13 06:23:06;;;;;;;1.58;0.38;;;;;;;7.55;70.00;97755.41;5043515;28;20030;-70
2021/03/13 06:25:32;;;;;;;1.75;0.38;;;;;;;7.98;68.03;97754.88;5037556;28;20081;-73
2021/03/13 06:28:00;;;;;;;0.75;0.40;;;;;;;7.78;68.56;97754.09;5037912;28;20032;-70
2021/03/13 06:30:49;;;;;;;2.33;0.40;;;;;;;7.41;69.98;97759.16;5038995;28;20025;-71
2021/03/13 06:33:20;;;;;;;2.70;0.50;;;;;;;7.27;70.12;97744.88;5027649;28;20086;-68
2021/03/13 06:35:45;;;;;;;1.58;0.52;;;;;;;7.29;70.24;97748.19;5048579;28;20036;-70
2021/03/13 06:38:18;;;;;;;0.40;0.28;;;;;;;7.28;70.06;97743.84;5044030;28;20025;-70
2021/03/13 06:40:43;;;;;;;1.55;0.40;;;;;;;7.29;69.89;97733.94;5040187;28;20026;-71
2021/03/13 06:43:21;;;;;;;3.67;0.30;;;;;;;7.35;69.24;97743.84;5034363;28;20116;-70
2021/03/13 06:46:15;;;;;;;1.10;0.40;;;;;;;7.41;69.30;97729.53;5027454;28;20495;-70
2021/03/13 06:48:45;;;;;;;1.63;0.30;;;;;;;7.39;69.50;97718.19;5044508;28;20069;-75
2021/03/13 06:51:40;;;;;;;2.67;0.73;;;;;;;7.42;68.81;97718.59;5014240;28;20029;-72
2021/03/13 06:54:13;;;;;;;4.95;0.35;;;;;;;7.53;68.36;97709.03;5013033;28;20487;-75
2021/03/13 06:56:47;;;;;;;3.22;0.80;;;;;;;7.49;68.85;97694.34;5021325;28;20029;-71
2021/03/13 06:59:39;;;;;;;3.17;0.47;;;;;;;7.67;67.59;97702.56;5021523;28;20182;-74
2021/03/13 07:02:07;;;;;;;4.63;0.93;;;;;;;7.79;66.80;97683.09;5012734;28;20025;-73
2021/03/13 07:04:43;;;;;;;4.60;0.50;;;;;;;7.90;66.18;97683.22;5023635;28;20087;-73
2021/03/13 07:07:11;;;;;;;3.03;0.40;;;;;;;7.90;66.34;97693.19;5013990;28;20033;-73
2021/03/13 07:09:53;;;;;;;3.17;0.30;;;;;;;8.00;66.28;97676.56;5019493;28;20034;-73
2021/03/13 07:12:25;;;;;;;4.70;0.77;;;;;;;8.00;66.23;97685.47;5023610;28;20026;-73
2021/03/13 07:14:52;;;;;;;4.97;0.52;;;;;;;8.08;65.61;97704.06;5011053;28;20442;-73
2021/03/13 07:17:18;;;;;;;8.48;0.80;;;;;;;8.13;65.79;97695.34;5024864;28;20072;-73
2021/03/13 07:19:44;;;;;;;2.33;0.30;;;;;;;8.29;64.61;97670.59;5022082;28;20029;-72
2021/03/13 07:22:11;;;;;;;2.08;0.57;;;;;;;8.45;64.68;97690.03;5028613;28;20061;-73
2021/03/13 07:24:37;;;;;;;4.22;0.40;;;;;;;8.70;63.65;97660.41;5021756;28;20074;-73
2021/03/13 07:27:04;;;;;;;1.02;0.35;;;;;;;8.91;62.84;97678.91;5024061;28;20026;-73
2021/03/13 07:29:30;;;;;;;1.80;0.40;;;;;;;9.24;62.10;97661.56;5041425;28;20026;-73
2021/03/13 07:32:00;;;;;;;7.07;0.93;;;;;;;9.44;61.39;97678.41;5036009;28;20056;-76
2021/03/13 07:34:30;;;;;;;5.03;0.68;;;;;;;10.16;60.04;97663.41;5042354;28;20047;-73
2021/03/13 07:36:57;;;;;;;2.42;0.60;;;;;;;10.16;58.37;97637.22;5038356;28;20026;-72
2021/03/13 07:39:27;;;;;;;3.35;0.55;;;;;;;9.54;60.30;97636.56;5030648;28;20032;-73
2021/03/13 07:42:00;;;;;;;3.33;0.63;;;;;;;9.28;61.34;97652.00;5045356;28;20025;-72
2021/03/13 07:44:26;;;;;;;1.67;0.52;;;;;;;9.03;62.13;97641.22;5039018;28;20033;-73
2021/03/13 07:46:51;;;;;;;3.20;0.40;;;;;;;9.10;61.86;97660.06;5032106;28;20026;-74
2021/03/13 07:49:17;;;;;;;1.90;0.45;;;;;;;9.09;60.93;97651.16;5034965;28;20029;-73
2021/03/13 07:51:43;;;;;;;2.08;0.50;;;;;;;9.00;60.99;97676.75;5043752;28;20010;-74
2021/03/13 07:54:09;;;;;;;4.57;0.85;;;;;;;8.78;61.29;97642.09;5044663;28;20029;-73
2021/03/13 07:56:39;;;;;;;2.63;0.50;;;;;;;8.78;61.71;97652.06;5033662;28;20014;-74
2021/03/13 07:59:08;;;;;;;4.55;0.40;;;;;;;8.77;61.43;97672.78;5033859;28;20026;-73
2021/03/13 08:01:48;;;;;;;1.63;0.35;;;;;;;8.78;61.38;97638.56;5046874;28;20061;-76
2021/03/13 08:04:42;;;;;;;1.67;0.60;;;;;;;8.87;61.34;97644.50;5045206;28;20026;-77
2021/03/13 08:07:07;;;;;;;4.55;0.40;;;;;;;8.95;60.96;97655.81;5024467;28;20021;-72
2021/03/13 08:09:41;;;;;;;1.92;0.40;;;;;;;8.87;61.18;97639.91;5021207;28;20029;-73
2021/03/13 08:12:06;;;;;;;1.05;0.57;;;;;;;8.99;60.41;97656.22;5028782;28;20026;-74
2021/03/13 08:14:35;;;;;;;2.72;0.43;;;;;;;8.91;60.70;97638.44;5032804;28;20033;-73
2021/03/13 08:17:11;;;;;;;4.00;0.30;;;;;;;8.89;60.81;97627.03;5032459;28;20040;-73
2021/03/13 08:19:39;;;;;;;1.48;0.38;;;;;;;9.10;60.19;97630.38;5031207;28;20041;-73
2021/03/13 08:22:19;;;;;;;1.75;0.22;;;;;;;9.17;60.66;97628.47;5024954;28;20467;-74
2021/03/13 08:24:54;;;;;;;0.95;0.20;;;;;;;9.17;59.96;97640.06;5010759;28;20112;-73
2021/03/13 08:27:34;;;;;;;4.25;0.50;;;;;;;9.47;59.34;97619.63;5017451;28;20022;-74
2021/03/13 08:30:00;;;;;;;2.97;0.30;;;;;;;9.54;58.83;97621.19;5032247;28;20033;-74
2021/03/13 08:32:57;;;;;;;1.00;0.35;;;;;;;9.55;58.91;97592.31;5028747;28;20022;-77
2021/03/13 08:35:37;;;;;;;1.02;0.32;;;;;;;10.28;58.23;97608.38;5031309;28;20071;-75
2021/03/13 08:38:03;;;;;;;1.08;0.20;;;;;;;11.33;53.84;97616.81;5027661;28;20061;-75
2021/03/13 08:40:30;;;;;;;0.70;0.10;;;;;;;11.79;52.01;97580.69;5032128;28;20115;-75
2021/03/13 08:42:56;;;;;;;3.17;0.32;;;;;;;11.46;53.60;97592.19;5013161;28;20029;-76
2021/03/13 08:45:23;;;;;;;1.92;0.50;;;;;;;10.68;55.65;97596.94;5034947;28;20033;-74
2021/03/13 08:47:53;;;;;;;1.95;0.30;;;;;;;10.20;55.58;97561.91;5030841;28;20025;-74
2021/03/13 08:50:48;;;;;;;0.52;0.20;;;;;;;10.29;55.55;97566.75;5023672;28;20026;-71
2021/03/13 08:53:28;;;;;;;1.58;0.40;;;;;;;9.77;56.81;97577.28;5024923;28;20049;-72
2021/03/13 08:55:54;;;;;;;3.85;0.50;;;;;;;9.65;58.05;97571.00;5019717;28;20018;-72
2021/03/13 08:58:42;;;;;;;2.00;0.20;;;;;;;9.66;57.37;97557.25;5036428;28;20041;-72
2021/03/13 09:01:19;;;;;;;1.40;0.32;;;;;;;9.68;57.71;97569.72;5033393;28;20040;-71
2021/03/13 09:03:47;;;;;;;0.95;0.32;;;;;;;9.61;57.15;97546.31;5035638;28;20036;-75
2021/03/13 09:06:13;;;;;;;1.17;0.30;;;;;;;9.79;57.20;97553.53;5026637;28;20374;-72
2021/03/13 09:08:38;;;;;;;1.02;0.38;;;;;;;9.83;56.99;97552.03;5028187;28;20108;-72
2021/03/13 09:11:04;;;;;;;2.30;0.40;;;;;;;10.32;55.70;97527.63;5039706;28;20080;-72
2021/03/13 09:13:29;;;;;;;2.58;0.50;;;;;;;10.69;54.32;97532.84;5035629;28;20021;-73
2021/03/13 09:15:54;;;;;;;1.45;0.32;;;;;;;11.14;52.59;97521.41;5033950;28;20029;-74
2021/03/13 09:18:19;;;;;;;1.02;0.35;;;;;;;11.60;52.10;97487.09;5017385;28;20029;-75
2021/03/13 09:20:45;;;;;;;1.73;0.52;;;;;;;12.04;51.53;97501.75;5031577;28;20434;-76
2021/03/13 09:23:10;;;;;;;6.00;0.50;;;;;;;12.69;49.93;97485.97;5030117;28;20034;-76
2021/03/13 09:25:35;;;;;;;1.27;0.30;;;;;;;13.01;49.21;97474.44;5022637;28;20025;-76
2021/03/13 09:28:01;;;;;;;2.55;0.45;;;;;;;13.25;47.91;97473.13;5016566;28;20434;-74
2021/03/13 09:30:29;;;;;;;3.58;0.60;;;;;;;12.83;48.80;97479.09;5016750;28;20031;-74
2021/03/13 09:32:54;;;;;;;0.82;0.32;;;;;;;12.50;48.90;97464.53;5035223;28;20505;-72
2021/03/13 09:35:24;;;;;;;1.90;0.32;;;;;;;12.39;50.09;97468.16;5034807;28;20037;-72
2021/03/13 09:37:50;;;;;;;3.60;0.50;;;;;;;11.90;50.44;97491.47;5033728;28;20029;-72
2021/03/13 09:40:18;;;;;;;6.25;0.47;;;;;;;11.44;52.21;97494.09;5015950;28;20152;-72
2021/03/13 09:42:45;;;;;;;3.03;0.40;;;;;;;11.33;51.86;97457.06;5030304;28;20095;-73
2021/03/13 09:45:13;;;;;;;1.35;0.30;;;;;;;10.96;52.45;97485.28;5040371;28;20057;-73
2021/03/13 09:47:40;;;;;;;0.95;0.30;;;;;;;10.97;52.82;97502.34;5032488;28;20052;-74
2021/03/13 09:50:13;;;;;;;2.38;0.38;;;;;;;10.93;53.29;97474.13;5035369;28;20029;-73
2021/03/13 09:52:41;;;;;;;1.75;0.50;;;;;;;10.80;53.75;97477.09;5017870;28;20025;-75
2021/03/13 09:55:17;;;;;;;5.45;0.55;;;;;;;10.82;53.78;97469.53;5023810;28;20032;-75
2021/03/13 09:57:46;;;;;;;1.42;0.50;;;;;;;10.65;53.47;97472.97;5016294;28;20054;-75
2021/03/13 10:00:17;;;;;;;2.85;0.57;;;;;;;10.56;53.55;97469.00;5023193;28;20084;-73
2021/03/13 10:02:44;;;;;;;1.85;0.30;;;;;;;10.49;53.92;97481.81;5035344;28;20570;-72
2021/03/13 10:05:13;;;;;;;0.75;0.40;;;;;;;10.36;54.26;97463.13;5032695;28;20474;-73
2021/03/13 10:07:41;;;;;;;1.92;0.30;;;;;;;10.39;54.67;97484.28;5024437;28;20044;-72
2021/03/13 10:10:08;;;;;;;0.65;0.30;;;;;;;10.34;54.24;97478.75;5035316;28;20029;-75
2021/03/13 10:12:36;;;;;;;3.15;0.40;;;;;;;10.46;54.41;97474.19;5018033;28;20103;-74
2021/03/13 10:15:25;;;;;;;7.10;0.40;;;;;;;10.26;54.55;97469.88;5034474;28;20021;-76
2021/03/13 10:18:03;;;;;;;3.97;0.60;;;;;;;10.39;55.00;97468.06;5037934;28;20554;-74
2021/03/13 10:20:38;;;;;;;2.30;0.30;;;;;;;10.44;53.98;97468.19;5019545;28;20602;-74
2021/03/13 10:23:12;;;;;;;0.75;0.30;;;;;;;10.33;53.91;97433.88;5027965;28;20029;-72
2021/03/13 10:25:40;;;;;;;0.73;0.38;;;;;;;10.57;54.13;97448.19;5011025;28;20390;-73
2021/03/13 10:28:11;;;;;;;3.72;0.60;;;;;;;10.29;54.15;97442.41;5028430;28;20529;-71
2021/03/13 10:30:38;;;;;;;2.75;0.40;;;;;;;10.58;54.10;97447.13;5022656;28;20400;-69
2021/03/13 10:33:04;;;;;;;0.30;0.10;;;;;;;10.61;53.83;97420.44;4998949;28;20041;-73
2021/03/13 10:35:31;;;;;;;1.95;0.30;;;;;;;10.77;53.91;97445.09;5033325;28;20399;-72
2021/03/13 10:38:02;;;;;;;2.13;0.40;;;;;;;10.80;53.95;97428.41;5033652;28;20112;-75
2021/03/13 10:40:29;;;;;;;1.33;0.30;;;;;;;10.77;53.86;97448.63;5031402;28;20046;-74
2021/03/13 10:43:32;;;;;;;2.25;0.45;;;;;;;10.71;53.68;97444.97;5031230;28;20068;-75
2021/03/13 10:45:57;;;;;;;1.05;0.20;;;;;;;10.62;53.79;97430.19;5030030;28;20375;-71
2021/03/13 10:48:31;;;;;;;3.45;0.40;;;;;;;10.77;53.87;97426.16;5018658;28;20026;-71
2021/03/13 10:50:57;;;;;;;0.75;0.40;;;;;;;10.74;54.07;97420.19;5033289;28;20018;-71
2021/03/13 10:53:30;;;;;;;0.85;0.30;;;;;;;11.03;53.50;97428.34;5026325;28;20472;-71
2021/03/13 10:56:01;;;;;;;0.63;0.30;;;;;;;11.09;52.88;97429.25;5042927;28;20489;-71
2021/03/13 10:58:29;;;;;;;2.20;0.20;;;;;;;11.17;53.55;97421.56;5015543;28;20037;-71
2021/03/13 11:00:56;;;;;;;2.17;0.32;;;;;;;11.15;53.72;97404.75;5014031;28;20030;-70
2021/03/13 11:03:21;;;;;;;0.85;0.30;;;;;;;11.19;52.87;97402.41;5044492;28;20100;-71
2021/03/13 11:05:50;;;;;;;0.65;0.30;;;;;;;10.84;52.96;97411.44;5043764;28;20096;-70
2021/03/13 11:08:16;;;;;;;3.38;0.30;;;;;;;10.87;53.07;97386.63;5019589;28;20025;-70
2021/03/13 11:10:42;;;;;;;4.90;0.47;;;;;;;10.94;53.83;97402.72;5031155;28;20056;-71
2021/03/13 11:13:08;;;;;;;0.68;0.30;;;;;;;11.15;53.41;97402.03;5018761;28;20065;-70
2021/03/13 11:15:33;;;;;;;2.70;0.30;;;;;;;11.00;52.90;97409.03;5029170;28;20034;-70
2021/03/13 11:17:58;;;;;;;2.05;0.30;;;;;;;11.04;53.39;97397.50;5027845;28;20029;-71
2021/03/13 11:20:24;;;;;;;2.10;0.43;;;;;;;10.87;53.42;97391.19;5017035;28;20017;-70
2021/03/13 11:22:49;;;;;;;0.47;0.30;;;;;;;10.95;53.53;97410.59;5033865;28;20034;-71
2021/03/13 11:25:15;;;;;;;3.08;0.32;;;;;;;11.16;52.62;97392.88;5045626;28;20095;-70
2021/03/13 11:27:40;;;;;;;3.92;0.28;;;;;;;11.31;52.65;97408.56;5026510;28;20356;-70
2021/03/13 11:30:09;;;;;;;0.38;0.20;;;;;;;11.24;52.29;97401.66;5010815;28;20029;-70
2021/03/13 11:32:34;;;;;;;2.45;0.38;;;;;;;11.18;52.92;97411.56;5020554;28;20498;-70
2021/03/13 11:35:00;;;;;;;1.60;0.38;;;;;;;10.99;52.96;97396.59;5048188;28;20079;-70
2021/03/13 11:37:25;;;;;;;1.65;0.32;;;;;;;11.05;53.05;97401.84;5029411;28;20033;-70
2021/03/13 11:39:51;;;;;;;0.47;0.20;;;;;;;10.94;52.79;97400.00;5045962;28;20060;-71
2021/03/13 11:42:16;;;;;;;1.35;0.47;;;;;;;10.88;53.06;97390.16;5026352;28;20017;-70
2021/03/13 11:44:41;;;;;;;0.70;0.17;;;;;;;10.73;53.03;97383.34;5020401;28;20503;-70
2021/03/13 11:47:07;;;;;;;1.02;0.20;;;;;;;10.62;53.69;97403.13;5022743;28;20025;-70